createdAt,value
2019-03-25T00:02:07.403Z,99908.13
2019-03-25T00:04:35.641Z,99901.08
2019-03-25T00:07:04.119Z,99905.60
2019-03-25T00:09:32.353Z,99905.09
2019-03-25T00:12:00.605Z,99911.29
2019-03-25T00:14:28.830Z,99904.05
2019-03-25T00:16:57.074Z,99909.23
2019-03-25T00:19:25.306Z,99910.83
2019-03-25T00:21:53.555Z,99901.88
2019-03-25T00:24:21.790Z,99909.06
2019-03-25T00:26:50.034Z,99906.11
2019-03-25T00:29:18.273Z,99909.62
2019-03-25T00:31:46.517Z,99909.62
2019-03-25T00:34:14.754Z,99906.11
2019-03-25T00:36:43.262Z,99904.14
2019-03-25T00:39:11.500Z,99905.70
2019-03-25T00:41:39.731Z,99899.22
2019-03-25T00:44:07.967Z,99892.52
2019-03-25T00:46:36.434Z,99902.97
2019-03-25T00:49:04.673Z,99891.16
2019-03-25T00:51:32.908Z,99908.45
2019-03-25T00:54:01.149Z,99903.03
2019-03-25T00:56:29.646Z,99904.04
2019-03-25T00:58:57.894Z,99910.22
2019-03-25T01:01:26.126Z,99905.66
2019-03-25T01:03:54.372Z,99913.51
2019-03-25T01:06:22.606Z,99918.52
2019-03-25T01:08:51.135Z,99915.00
2019-03-25T01:11:19.416Z,99910.57
2019-03-25T01:13:47.666Z,99912.22
2019-03-25T01:16:15.911Z,99915.84
2019-03-25T01:18:44.151Z,99913.50
2019-03-25T01:21:12.391Z,99913.47
2019-03-25T01:23:40.622Z,99916.02
2019-03-25T01:26:08.859Z,99902.87
2019-03-25T01:28:37.102Z,99907.77
2019-03-25T01:31:05.339Z,99905.18
2019-03-25T01:33:33.582Z,99902.52
2019-03-25T01:36:01.818Z,99894.66
2019-03-25T01:38:30.051Z,99893.98
2019-03-25T01:40:58.310Z,99896.21
2019-03-25T01:43:26.540Z,99886.96
2019-03-25T01:45:54.792Z,99885.02
2019-03-25T01:48:23.032Z,99884.19
2019-03-25T01:50:51.539Z,99882.81
2019-03-25T01:53:19.772Z,99878.98
2019-03-25T01:55:48.301Z,99872.89
2019-03-25T01:58:16.538Z,99870.02
2019-03-25T02:00:44.776Z,99872.95
2019-03-25T02:03:13.021Z,99866.08
2019-03-25T02:05:41.262Z,99868.91
2019-03-25T02:08:09.494Z,99860.76
2019-03-25T02:10:37.734Z,99861.81
2019-03-25T02:13:05.965Z,99854.48
2019-03-25T02:15:34.511Z,99850.83
2019-03-25T02:18:02.748Z,99848.63
2019-03-25T02:20:31.210Z,99848.12
2019-03-25T02:22:59.706Z,99844.64
2019-03-25T02:25:28.272Z,99848.23
2019-03-25T02:27:56.502Z,99838.88
2019-03-25T02:30:24.966Z,99840.52
2019-03-25T02:32:53.206Z,99838.30
2019-03-25T02:35:21.670Z,99840.72
2019-03-25T02:37:49.901Z,99845.75
2019-03-25T02:40:18.129Z,99842.88
2019-03-25T02:42:46.370Z,99845.23
2019-03-25T02:45:14.598Z,99845.73
2019-03-25T02:47:42.840Z,99829.61
2019-03-25T02:50:11.551Z,99837.89
2019-03-25T02:52:39.794Z,99841.33
2019-03-25T02:55:08.087Z,99835.45
2019-03-25T02:57:36.550Z,99833.79
2019-03-25T03:00:05.338Z,99821.55
2019-03-25T03:02:33.583Z,99811.62
2019-03-25T03:05:02.043Z,99811.62
2019-03-25T03:07:30.270Z,99821.00
2019-03-25T03:09:58.510Z,99821.00
2019-03-25T03:12:26.734Z,99822.27
2019-03-25T03:14:54.975Z,99814.85
2019-03-25T03:17:23.201Z,99814.85
2019-03-25T03:19:51.441Z,99805.95
2019-03-25T03:22:19.663Z,99805.95
2019-03-25T03:24:48.119Z,99807.61
2019-03-25T03:27:16.386Z,99806.95
2019-03-25T03:29:44.589Z,99789.64
2019-03-25T03:32:12.862Z,99806.06
2019-03-25T03:34:41.089Z,99799.30
2019-03-25T03:37:09.335Z,99804.39
2019-03-25T03:39:37.555Z,99795.47
2019-03-25T03:42:05.856Z,99793.59
2019-03-25T03:44:34.097Z,99785.73
2019-03-25T03:47:02.550Z,99785.73
2019-03-25T03:49:30.781Z,99777.31
2019-03-25T03:51:59.042Z,99778.09
2019-03-25T03:54:27.262Z,99778.89
2019-03-25T03:56:55.769Z,99780.47
2019-03-25T03:59:25.031Z,99774.31
2019-03-25T04:01:53.269Z,99784.34
2019-03-25T04:04:21.512Z,99772.87
2019-03-25T04:06:49.747Z,99773.87
2019-03-25T04:09:18.200Z,99766.89
2019-03-25T04:11:46.441Z,99764.94
2019-03-25T04:14:14.905Z,99758.13
2019-03-25T04:16:43.138Z,99753.42
2019-03-25T04:19:11.379Z,99753.80
2019-03-25T04:21:39.603Z,99753.80
2019-03-25T04:24:07.837Z,99733.47
2019-03-25T04:26:36.312Z,99730.37
2019-03-25T04:29:04.535Z,99730.37
2019-03-25T04:31:32.787Z,99748.05
2019-03-25T04:34:01.249Z,99741.52
2019-03-25T04:36:29.726Z,99741.52
2019-03-25T04:38:57.957Z,99746.05
2019-03-25T04:41:26.200Z,99717.47
2019-03-25T04:43:54.700Z,99717.47
2019-03-25T04:46:22.940Z,99715.88
2019-03-25T04:48:51.168Z,99726.89
2019-03-25T04:51:19.407Z,99721.68
2019-03-25T04:53:47.634Z,99721.68
2019-03-25T04:56:15.868Z,99704.02
2019-03-25T04:58:44.095Z,99717.77
2019-03-25T05:01:12.333Z,99706.30
2019-03-25T05:03:40.571Z,99691.23
2019-03-25T05:06:09.037Z,99691.23
2019-03-25T05:08:37.262Z,99710.17
2019-03-25T05:11:05.495Z,99720.52
2019-03-25T05:13:33.722Z,99717.89
2019-03-25T05:16:01.960Z,99702.61
2019-03-25T05:18:30.184Z,99704.70
2019-03-25T05:20:58.650Z,99702.81
2019-03-25T05:23:27.120Z,99712.16
2019-03-25T05:25:55.356Z,99730.69
2019-03-25T05:28:23.589Z,99708.55
2019-03-25T05:30:52.050Z,99713.47
2019-03-25T05:33:20.277Z,99706.48
2019-03-25T05:35:48.517Z,99714.45
2019-03-25T05:38:16.750Z,99707.30
2019-03-25T05:40:44.980Z,99705.45
2019-03-25T05:43:13.225Z,99697.91
2019-03-25T05:45:41.455Z,99701.83
2019-03-25T05:48:09.691Z,99711.72
2019-03-25T05:50:37.925Z,99705.66
2019-03-25T05:53:06.167Z,99707.70
2019-03-25T05:55:34.401Z,99701.25
2019-03-25T05:58:02.652Z,99702.03
2019-03-25T06:00:32.752Z,99704.30
2019-03-25T06:03:01.239Z,99697.03
2019-03-25T06:05:29.466Z,99695.25
2019-03-25T06:07:57.936Z,99670.92
2019-03-25T06:10:26.172Z,99670.64
2019-03-25T06:12:54.404Z,99660.92
2019-03-25T06:15:22.633Z,99659.45
2019-03-25T06:17:50.871Z,99664.56
2019-03-25T06:20:19.095Z,99686.35
2019-03-25T06:22:47.328Z,99690.19
2019-03-25T06:25:15.566Z,99674.97
2019-03-25T06:27:43.799Z,99677.30
2019-03-25T06:30:12.272Z,99671.13
2019-03-25T06:32:40.742Z,99665.93
2019-03-25T06:35:09.381Z,99669.95
2019-03-25T06:37:37.660Z,99678.69
2019-03-25T06:40:09.026Z,99681.92
2019-03-25T06:42:37.268Z,99682.03
2019-03-25T06:45:07.334Z,99684.19
2019-03-25T06:47:35.579Z,99676.14
2019-03-25T06:50:07.598Z,99663.67
2019-03-25T06:52:36.016Z,99665.53
2019-03-25T06:55:05.787Z,99680.17
2019-03-25T06:57:34.297Z,99680.56
2019-03-25T07:00:02.817Z,99680.63
2019-03-25T07:02:31.062Z,99676.91
2019-03-25T07:04:59.313Z,99681.98
2019-03-25T07:07:27.635Z,99681.77
2019-03-25T07:09:55.868Z,99680.45
2019-03-25T07:12:24.202Z,99691.75
2019-03-25T07:14:52.771Z,99692.91
2019-03-25T07:17:21.009Z,99691.19
2019-03-25T07:19:49.234Z,99689.27
2019-03-25T07:22:17.713Z,99695.73
2019-03-25T07:24:45.956Z,99692.92
2019-03-25T07:27:14.202Z,99694.73
2019-03-25T07:29:42.444Z,99702.28
2019-03-25T07:32:10.695Z,99711.14
2019-03-25T07:34:41.248Z,99708.80
2019-03-25T07:37:08.924Z,99705.11
2019-03-25T07:39:37.475Z,99710.82
2019-03-25T07:42:06.049Z,99712.31
2019-03-25T07:44:34.289Z,99720.09
2019-03-25T07:47:02.540Z,99734.48
2019-03-25T07:49:30.786Z,99728.89
2019-03-25T07:51:59.032Z,99730.77
2019-03-25T07:54:27.300Z,99730.51
2019-03-25T07:56:55.537Z,99726.48
2019-03-25T07:59:24.107Z,99741.53
2019-03-25T08:01:52.610Z,99743.00
2019-03-25T08:04:21.051Z,99733.80
2019-03-25T08:06:49.298Z,99732.63
2019-03-25T08:09:17.870Z,99738.85
2019-03-25T08:11:46.394Z,99724.50
2019-03-25T08:14:14.617Z,99734.69
2019-03-25T08:16:42.857Z,99727.91
2019-03-25T08:19:11.090Z,99731.30
2019-03-25T08:21:39.553Z,99717.98
2019-03-25T08:24:08.096Z,99726.72
2019-03-25T08:26:36.326Z,99716.23
2019-03-25T08:29:04.565Z,99720.70
2019-03-25T08:31:32.791Z,99725.30
2019-03-25T08:34:01.031Z,99742.22
2019-03-25T08:36:29.499Z,99719.41
2019-03-25T08:38:57.730Z,99711.63
2019-03-25T08:41:25.963Z,99726.40
2019-03-25T08:43:54.201Z,99716.77
2019-03-25T08:46:22.428Z,99715.30
2019-03-25T08:48:50.669Z,99717.63
2019-03-25T08:51:18.894Z,99721.92
2019-03-25T08:53:47.429Z,99739.73
2019-03-25T08:56:15.686Z,99734.47
2019-03-25T08:58:43.925Z,99758.86
2019-03-25T09:01:12.156Z,99755.97
2019-03-25T09:03:40.392Z,99741.91
2019-03-25T09:06:08.909Z,99739.28
2019-03-25T09:08:37.149Z,99752.33
2019-03-25T09:11:07.092Z,99738.31
2019-03-25T09:13:35.497Z,99748.46
2019-03-25T09:16:03.731Z,99755.47
2019-03-25T09:18:31.962Z,99727.70
2019-03-25T09:21:00.194Z,99735.57
2019-03-25T09:23:28.430Z,99735.84
2019-03-25T09:25:57.002Z,99742.45
2019-03-25T09:28:25.204Z,99729.61
2019-03-25T09:30:56.924Z,99740.18
2019-03-25T09:33:25.217Z,99727.73
2019-03-25T09:35:53.608Z,99714.41
2019-03-25T09:38:21.851Z,99709.64
2019-03-25T09:40:50.429Z,99709.91
2019-03-25T09:43:18.661Z,99716.26
2019-03-25T09:45:46.891Z,99718.14
2019-03-25T09:48:15.174Z,99715.95
2019-03-25T09:50:43.637Z,99733.48
2019-03-25T09:53:11.876Z,99724.33
2019-03-25T09:55:40.110Z,99697.80
2019-03-25T09:58:08.674Z,99728.39
2019-03-25T10:00:36.911Z,99728.40
2019-03-25T10:03:05.145Z,99728.72
2019-03-25T10:05:33.371Z,99729.76
2019-03-25T10:08:01.885Z,99732.44
2019-03-25T10:10:30.366Z,99735.47
2019-03-25T10:12:58.845Z,99730.01
2019-03-25T10:15:27.078Z,99725.77
2019-03-25T10:17:55.549Z,99716.47
2019-03-25T10:20:24.091Z,99739.97
2019-03-25T10:22:52.337Z,99737.13
2019-03-25T10:25:20.845Z,99734.85
2019-03-25T10:27:49.331Z,99755.71
2019-03-25T10:30:19.657Z,99735.20
2019-03-25T10:32:47.895Z,99772.37
2019-03-25T10:35:16.513Z,99758.73
2019-03-25T10:37:45.048Z,99736.25
2019-03-25T10:40:14.348Z,99743.62
2019-03-25T10:42:42.581Z,99714.27
2019-03-25T10:45:11.402Z,99720.13
2019-03-25T10:47:39.637Z,99711.77
2019-03-25T10:50:08.541Z,99708.67
2019-03-25T10:52:36.773Z,99718.45
2019-03-25T10:55:07.772Z,99733.92
2019-03-25T10:57:35.821Z,99744.10
2019-03-25T11:00:08.541Z,99733.07
2019-03-25T11:02:37.099Z,99738.48
2019-03-25T11:05:06.931Z,99742.96
2019-03-25T11:07:35.294Z,99754.86
2019-03-25T11:10:06.314Z,99770.59
2019-03-25T11:12:34.805Z,99781.42
2019-03-25T11:15:04.098Z,99737.25
2019-03-25T11:17:32.328Z,99761.88
2019-03-25T11:20:00.573Z,99761.83
2019-03-25T11:22:30.135Z,99756.27
2019-03-25T11:24:58.455Z,99786.28
2019-03-25T11:27:26.672Z,99790.98
2019-03-25T11:29:54.912Z,99792.06
2019-03-25T11:32:23.163Z,99781.58
2019-03-25T11:34:51.626Z,99781.56
2019-03-25T11:37:20.084Z,99768.82
2019-03-25T11:39:48.549Z,99771.66
2019-03-25T11:42:16.781Z,99768.62
2019-03-25T11:44:45.022Z,99760.54
2019-03-25T11:47:13.252Z,99761.34
2019-03-25T11:49:41.494Z,99769.61
2019-03-25T11:52:09.712Z,99776.16
2019-03-25T11:54:38.769Z,99769.67
2019-03-25T11:57:07.001Z,99771.34
2019-03-25T11:59:35.481Z,99770.33
2019-03-25T12:02:03.947Z,99776.38
2019-03-25T12:04:32.178Z,99761.09
2019-03-25T12:07:00.401Z,99754.91
2019-03-25T12:09:28.642Z,99757.49
2019-03-25T12:11:56.870Z,99768.05
2019-03-25T12:14:25.349Z,99764.34
2019-03-25T12:16:53.805Z,99755.34
2019-03-25T12:19:22.038Z,99756.17
2019-03-25T12:21:50.493Z,99775.83
2019-03-25T12:24:18.797Z,99756.59
2019-03-25T12:26:47.254Z,99745.30
2019-03-25T12:29:15.491Z,99746.66
2019-03-25T12:31:43.723Z,99740.83
2019-03-25T12:34:11.984Z,99743.75
2019-03-25T12:36:40.178Z,99730.61
2019-03-25T12:39:08.413Z,99738.58
2019-03-25T12:41:36.864Z,99730.27
2019-03-25T12:44:05.097Z,99735.16
2019-03-25T12:46:33.552Z,99717.33
2019-03-25T12:49:01.787Z,99722.19
2019-03-25T12:51:30.016Z,99726.41
2019-03-25T12:53:58.471Z,99732.98
2019-03-25T12:56:26.698Z,99723.67
2019-03-25T12:58:55.169Z,99726.68
2019-03-25T13:01:23.890Z,99736.63
2019-03-25T13:03:52.130Z,99744.52
2019-03-25T13:06:20.591Z,99771.96
2019-03-25T13:08:48.824Z,99778.35
2019-03-25T13:11:17.123Z,99784.41
2019-03-25T13:13:45.362Z,99785.86
2019-03-25T13:16:13.598Z,99783.31
2019-03-25T13:18:42.067Z,99802.77
2019-03-25T13:21:10.298Z,99809.38
2019-03-25T13:23:38.533Z,99805.38
2019-03-25T13:26:06.771Z,99812.03
2019-03-25T13:28:35.235Z,99807.15
2019-03-25T13:31:03.698Z,99802.48
2019-03-25T13:33:32.171Z,99803.75
2019-03-25T13:36:00.372Z,99778.61
2019-03-25T13:38:28.842Z,99793.84
2019-03-25T13:40:57.302Z,99804.89
2019-03-25T13:43:25.758Z,99788.02
2019-03-25T13:46:04.803Z,99811.09
2019-03-25T13:48:23.946Z,99823.47
2019-03-25T13:50:52.178Z,99844.20
2019-03-25T13:53:20.409Z,99823.69
2019-03-25T13:55:48.889Z,99828.91
2019-03-25T13:58:17.350Z,99826.63
2019-03-25T14:00:45.591Z,99835.25
2019-03-25T14:03:13.994Z,99817.09
2019-03-25T14:05:42.239Z,99808.29
2019-03-25T14:08:10.460Z,99808.59
2019-03-25T14:10:38.713Z,99800.23
2019-03-25T14:13:06.936Z,99804.80
2019-03-25T14:15:35.419Z,99791.58
2019-03-25T14:18:03.881Z,99782.91
2019-03-25T14:20:32.118Z,99770.13
2019-03-25T14:23:00.340Z,99775.16
2019-03-25T14:25:28.808Z,99754.42
2019-03-25T14:27:59.132Z,99775.04
2019-03-25T14:30:26.989Z,99769.24
2019-03-25T14:32:55.212Z,99772.29
2019-03-25T14:35:23.686Z,99768.36
2019-03-25T14:37:52.251Z,99772.42
2019-03-25T14:40:20.720Z,99761.04
2019-03-25T14:42:49.180Z,99772.02
2019-03-25T14:45:26.085Z,99764.44
2019-03-25T14:47:47.933Z,99766.66
2019-03-25T14:50:16.401Z,99762.35
2019-03-25T14:52:44.636Z,99762.75
2019-03-25T14:55:13.189Z,99763.08
2019-03-25T14:57:41.419Z,99775.88
2019-03-25T15:00:10.292Z,99780.41
2019-03-25T15:02:38.577Z,99782.78
2019-03-25T15:05:07.385Z,99794.49
2019-03-25T15:07:35.616Z,99808.20
2019-03-25T15:10:06.253Z,99805.09
2019-03-25T15:12:34.711Z,99797.09
2019-03-25T15:15:03.222Z,99814.98
2019-03-25T15:17:31.450Z,99801.71
2019-03-25T15:19:59.948Z,99809.33
2019-03-25T15:22:28.167Z,99811.49
2019-03-25T15:24:56.401Z,99815.42
2019-03-25T15:27:24.852Z,99811.05
2019-03-25T15:29:53.323Z,99804.89
2019-03-25T15:32:21.548Z,99816.98
2019-03-25T15:34:49.790Z,99824.95
2019-03-25T15:37:18.017Z,99823.61
2019-03-25T15:39:47.134Z,99823.91
2019-03-25T15:42:15.392Z,99822.14
2019-03-25T15:44:43.635Z,99821.45
2019-03-25T15:47:12.189Z,99817.91
2019-03-25T15:49:40.391Z,99818.67
2019-03-25T15:52:08.616Z,99825.47
2019-03-25T15:54:36.858Z,99833.61
2019-03-25T15:57:05.315Z,99835.27
2019-03-25T15:59:33.720Z,99830.56
2019-03-25T16:02:02.187Z,99838.52
2019-03-25T16:04:30.428Z,99847.44
2019-03-25T16:07:01.574Z,99844.36
2019-03-25T16:09:29.806Z,99856.10
2019-03-25T16:11:58.051Z,99867.23
2019-03-25T16:14:26.550Z,99873.42
2019-03-25T16:16:54.845Z,99866.32
2019-03-25T16:19:23.173Z,99878.25
2019-03-25T16:21:51.401Z,99882.79
2019-03-25T16:24:19.645Z,99887.33
2019-03-25T16:26:47.878Z,99881.53
2019-03-25T16:29:18.001Z,99893.41
2019-03-25T16:31:46.065Z,99900.61
2019-03-25T16:34:14.626Z,99904.02
2019-03-25T16:36:42.858Z,99903.23
2019-03-25T16:39:11.091Z,99895.17
2019-03-25T16:41:39.338Z,99907.63
2019-03-25T16:44:07.825Z,99908.22
2019-03-25T16:46:36.307Z,99907.14
2019-03-25T16:49:04.537Z,99913.28
2019-03-25T16:51:32.782Z,99917.12
2019-03-25T16:54:01.013Z,99923.06
2019-03-25T16:56:29.347Z,99917.25
2019-03-25T16:58:57.901Z,99922.30
2019-03-25T17:01:26.137Z,99932.23
2019-03-25T17:03:54.360Z,99947.50
2019-03-25T17:06:22.599Z,99948.29
2019-03-25T17:08:51.109Z,99947.70
2019-03-25T17:11:19.352Z,99936.95
2019-03-25T17:13:47.609Z,99948.05
2019-03-25T17:16:15.853Z,99960.09
2019-03-25T17:18:44.081Z,99966.34
2019-03-25T17:21:12.339Z,99979.41
2019-03-25T17:23:40.562Z,99970.22
2019-03-25T17:26:08.802Z,99981.91
2019-03-25T17:28:37.034Z,99998.02
2019-03-25T17:31:06.134Z,100002.23
2019-03-25T17:33:34.487Z,99978.55
2019-03-25T17:36:02.776Z,99977.23
2019-03-25T17:38:30.954Z,99981.55
2019-03-25T17:40:59.189Z,99978.95
2019-03-25T17:43:27.642Z,99972.27
2019-03-25T17:45:55.881Z,99982.66
2019-03-25T17:48:24.367Z,99981.66
2019-03-25T17:50:53.026Z,99986.60
2019-03-25T17:53:21.322Z,99997.95
2019-03-25T17:55:49.816Z,99997.40
2019-03-25T17:58:18.273Z,99990.11
2019-03-25T18:00:55.426Z,99998.48
2019-03-25T18:03:23.650Z,99986.92
2019-03-25T18:05:51.996Z,99981.06
2019-03-25T18:08:20.232Z,100015.32
2019-03-25T18:10:48.483Z,100022.74
2019-03-25T18:13:22.277Z,100025.17
2019-03-25T18:15:46.929Z,100029.94
2019-03-25T18:18:15.160Z,100040.02
2019-03-25T18:20:43.406Z,100042.87
2019-03-25T18:23:11.960Z,100053.99
2019-03-25T18:25:40.544Z,100067.13
2019-03-25T18:28:09.001Z,100075.81
2019-03-25T18:30:37.308Z,100078.24
2019-03-25T18:33:05.569Z,100084.50
2019-03-25T18:35:34.170Z,100086.66
2019-03-25T18:38:02.410Z,100100.44
2019-03-25T18:40:30.646Z,100100.44
2019-03-25T18:42:58.914Z,100080.16
2019-03-25T18:45:27.155Z,100106.73
2019-03-25T18:47:55.404Z,100106.73
2019-03-25T18:50:23.622Z,100110.25
2019-03-25T18:52:52.131Z,100109.36
2019-03-25T18:55:20.378Z,100105.75
2019-03-25T18:57:48.832Z,100121.13
2019-03-25T19:00:33.250Z,100108.07
2019-03-25T19:03:01.767Z,100108.07
2019-03-25T19:05:30.344Z,100133.58
2019-03-25T19:08:03.768Z,100138.67
2019-03-25T19:10:32.490Z,100133.88
2019-03-25T19:13:01.351Z,100150.25
2019-03-25T19:15:29.896Z,100147.83
2019-03-25T19:17:58.428Z,100155.83
2019-03-25T19:20:29.135Z,100165.60
2019-03-25T19:22:59.226Z,100155.08
2019-03-25T19:25:31.082Z,100164.70
2019-03-25T19:27:59.598Z,100160.15
2019-03-25T19:30:28.348Z,100161.58
2019-03-25T19:32:59.991Z,100173.02
2019-03-25T19:35:30.121Z,100176.92
2019-03-25T19:37:58.428Z,100169.97
2019-03-25T19:40:26.939Z,100179.91
2019-03-25T19:42:55.107Z,100174.42
2019-03-25T19:45:23.615Z,100187.29
2019-03-25T19:47:51.812Z,100191.61
2019-03-25T19:50:20.639Z,100193.39
2019-03-25T19:52:48.877Z,100194.02
2019-03-25T19:55:17.172Z,100194.62
2019-03-25T19:57:45.482Z,100203.98
2019-03-25T20:00:13.912Z,100198.95
2019-03-25T20:02:42.385Z,100208.23
2019-03-25T20:05:10.735Z,100210.70
2019-03-25T20:07:39.204Z,100219.48
2019-03-25T20:10:10.636Z,100225.59
2019-03-25T20:12:38.881Z,100235.53
2019-03-25T20:15:08.205Z,100241.02
2019-03-25T20:17:36.487Z,100247.55
2019-03-25T20:20:06.089Z,100249.34
2019-03-25T20:22:34.327Z,100258.81
2019-03-25T20:25:02.629Z,100261.02
2019-03-25T20:27:31.098Z,100265.69
2019-03-25T20:29:59.555Z,100265.98
2019-03-25T20:32:31.939Z,100264.27
2019-03-25T20:34:58.195Z,100278.84
2019-03-25T20:37:26.675Z,100279.11
2019-03-25T20:39:55.157Z,100277.98
2019-03-25T20:42:23.371Z,100291.38
2019-03-25T20:44:51.630Z,100292.84
2019-03-25T20:47:19.942Z,100291.27
2019-03-25T20:49:48.207Z,100274.60
2019-03-25T20:52:16.794Z,100295.03
2019-03-25T20:54:45.277Z,100294.67
2019-03-25T20:57:13.524Z,100308.31
2019-03-25T20:59:42.065Z,100296.72
2019-03-25T21:02:10.542Z,100303.73
2019-03-25T21:04:38.815Z,100316.23
2019-03-25T21:07:07.443Z,100309.52
2019-03-25T21:09:35.793Z,100319.09
2019-03-25T21:12:04.053Z,100319.09
2019-03-25T21:14:32.291Z,100328.91
2019-03-25T21:17:00.499Z,100315.94
2019-03-25T21:19:28.991Z,100315.94
2019-03-25T21:21:57.233Z,100342.16
2019-03-25T21:24:25.500Z,100342.76
2019-03-25T21:26:53.739Z,100341.61
2019-03-25T21:29:22.081Z,100347.33
2019-03-25T21:31:50.500Z,100351.52
2019-03-25T21:34:18.717Z,100347.77
2019-03-25T21:36:47.257Z,100351.30
2019-03-25T21:39:15.417Z,100344.63
2019-03-25T21:41:43.675Z,100347.62
2019-03-25T21:44:11.979Z,100350.77
2019-03-25T21:46:40.449Z,100357.09
2019-03-25T21:49:08.796Z,100358.84
2019-03-25T21:51:37.099Z,100357.03
2019-03-25T21:54:05.491Z,100367.95
2019-03-25T21:56:34.073Z,100367.53
2019-03-25T21:59:02.283Z,100368.66
2019-03-25T22:01:30.604Z,100365.45
2019-03-25T22:03:58.860Z,100364.28
2019-03-25T22:06:27.088Z,100363.40
2019-03-25T22:08:55.576Z,100365.17
2019-03-25T22:11:23.806Z,100368.14
2019-03-25T22:13:52.103Z,100362.91
2019-03-25T22:16:20.343Z,100373.89
2019-03-25T22:18:48.648Z,100374.40
2019-03-25T22:21:17.102Z,100378.88
2019-03-25T22:23:45.589Z,100374.91
2019-03-25T22:26:14.046Z,100377.06
2019-03-25T22:28:42.507Z,100382.67
2019-03-25T22:31:10.737Z,100389.83
2019-03-25T22:33:38.975Z,100387.52
2019-03-25T22:36:07.204Z,100384.19
2019-03-25T22:38:35.461Z,100394.41
2019-03-25T22:41:03.766Z,100395.88
2019-03-25T22:43:32.003Z,100403.93
2019-03-25T22:46:00.232Z,100407.88
2019-03-25T22:48:28.695Z,100413.87
2019-03-25T22:50:56.924Z,100417.05
2019-03-25T22:53:25.163Z,100424.71
2019-03-25T22:55:53.392Z,100424.33
2019-03-25T22:58:21.628Z,100425.09
2019-03-25T23:00:50.083Z,100433.65
2019-03-25T23:03:18.334Z,100434.30
2019-03-25T23:05:46.853Z,100432.76
2019-03-25T23:08:15.337Z,100431.22
2019-03-25T23:10:43.791Z,100429.31
2019-03-25T23:13:12.255Z,100434.06
2019-03-25T23:15:40.484Z,100434.84
2019-03-25T23:18:08.719Z,100438.97
2019-03-25T23:20:36.951Z,100440.02
2019-03-25T23:23:05.195Z,100440.78
2019-03-25T23:25:33.425Z,100441.44
2019-03-25T23:28:01.667Z,100448.35
2019-03-25T23:30:30.122Z,100458.00
2019-03-25T23:32:58.370Z,100451.26
2019-03-25T23:35:26.600Z,100443.23
2019-03-25T23:37:55.066Z,100443.54
2019-03-25T23:40:23.296Z,100445.85
2019-03-25T23:42:51.784Z,100446.50
2019-03-25T23:45:20.242Z,100442.55
2019-03-25T23:47:48.477Z,100447.27
2019-03-25T23:50:16.984Z,100452.76
2019-03-25T23:52:45.197Z,100444.72
2019-03-25T23:55:13.430Z,100451.73
2019-03-25T23:57:45.472Z,100453.63
